sensor_id;sensor_type;location;lat;lon;timestamp;pressure;altitude;pressure_sealevel;temperature;humidity
61880;BME280;47817;52.798;27.544;2023-07-28T00:00:11;1014.4;;;14.8;90.1
61880;BME280;47817;52.798;27.544;2023-07-28T00:05:27;1014.5;;;14.7;90.4
61880;BME280;47817;52.798;27.544;2023-07-28T00:10:25;1014.5;;;14.7;90.8
61880;BME280;47817;52.798;27.544;2023-07-28T00:15:11;1014.5;;;14.6;91.1
61880;BME280;47817;52.798;27.544;2023-07-28T00:20:27;1014.5;;;14.5;91.6
61880;BME280;47817;52.798;27.544;2023-07-28T00:25:17;1014.5;;;14.4;92.2
61880;BME280;47817;52.798;27.544;2023-07-28T00:30:23;1014.5;;;14.4;92.5
61880;BME280;47817;52.798;27.544;2023-07-28T00:35:12;1014.5;;;14.4;92.5
61880;BME280;47817;52.798;27.544;2023-07-28T00:40:55;1014.4;;;14.3;92.9
61880;BME280;47817;52.798;27.544;2023-07-28T00:45:56;1014.4;;;14.3;93
61880;BME280;47817;52.798;27.544;2023-07-28T00:50:11;1014.4;;;14.2;93.1
61880;BME280;47817;52.798;27.544;2023-07-28T00:55:39;1014.4;;;14.2;93
61880;BME280;47817;52.798;27.544;2023-07-28T01:00:47;1014.4;;;14.1;93.2
61880;BME280;47817;52.798;27.544;2023-07-28T01:05:11;1014.4;;;14.1;93.3
61880;BME280;47817;52.798;27.544;2023-07-28T01:10:11;1014.4;;;14;93.5
61880;BME280;47817;52.798;27.544;2023-07-28T01:15:25;1014.4;;;14;93.6
61880;BME280;47817;52.798;27.544;2023-07-28T01:20:39;1014.4;;;13.9;93.8
61880;BME280;47817;52.798;27.544;2023-07-28T01:25:47;1014.4;;;13.9;93.6
61880;BME280;47817;52.798;27.544;2023-07-28T01:30:25;1014.3;;;13.9;93.5
61880;BME280;47817;52.798;27.544;2023-07-28T01:35:55;1014.3;;;13.8;93.5
61880;BME280;47817;52.798;27.544;2023-07-28T01:40:25;1014.3;;;13.8;93.6
61880;BME280;47817;52.798;27.544;2023-07-28T01:45:55;1014.4;;;13.7;93.5
61880;BME280;47817;52.798;27.544;2023-07-28T01:50:45;1014.4;;;13.7;93.6
61880;BME280;47817;52.798;27.544;2023-07-28T01:55:41;1014.4;;;13.7;93.7
61880;BME280;47817;52.798;27.544;2023-07-28T02:00:45;1014.4;;;13.6;93.7
61880;BME280;47817;52.798;27.544;2023-07-28T02:05:31;1014.4;;;13.6;93.6
61880;BME280;47817;52.798;27.544;2023-07-28T02:10:29;1014.3;;;13.5;93.5
61880;BME280;47817;52.798;27.544;2023-07-28T02:15:11;1014.3;;;13.5;93.5
61880;BME280;47817;52.798;27.544;2023-07-28T02:20:47;1014.2;;;13.5;93.5
61880;BME280;47817;52.798;27.544;2023-07-28T02:25:53;1014.2;;;13.5;93.5
61880;BME280;47817;52.798;27.544;2023-07-28T02:30:29;1014.1;;;13.5;93.5
61880;BME280;47817;52.798;27.544;2023-07-28T02:35:53;1014.1;;;13.5;93.3
61880;BME280;47817;52.798;27.544;2023-07-28T02:40:53;1014.2;;;13.5;92.8
61880;BME280;47817;52.798;27.544;2023-07-28T02:45:15;1014.2;;;13.5;92.7
61880;BME280;47817;52.798;27.544;2023-07-28T02:50:19;1014.1;;;13.5;92.7
61880;BME280;47817;52.798;27.544;2023-07-28T02:55:31;1014.1;;;13.6;92.5
61880;BME280;47817;52.798;27.544;2023-07-28T03:00:43;1014.1;;;13.6;92.3
61880;BME280;47817;52.798;27.544;2023-07-28T03:05:11;1014.2;;;13.6;92.2
61880;BME280;47817;52.798;27.544;2023-07-28T03:10:23;1014.3;;;13.6;92.3
61880;BME280;47817;52.798;27.544;2023-07-28T03:15:53;1014.3;;;13.7;92.2
61880;BME280;47817;52.798;27.544;2023-07-28T03:20:27;1014.4;;;13.8;92
61880;BME280;47817;52.798;27.544;2023-07-28T03:25:27;1014.4;;;13.9;91.8
61880;BME280;47817;52.798;27.544;2023-07-28T03:30:53;1014.4;;;14.1;91.6
61880;BME280;47817;52.798;27.544;2023-07-28T03:35:43;1014.4;;;14.2;91.3
61880;BME280;47817;52.798;27.544;2023-07-28T03:40:11;1014.5;;;14.4;91
61880;BME280;47817;52.798;27.544;2023-07-28T03:45:11;1014.5;;;14.5;90.4
61880;BME280;47817;52.798;27.544;2023-07-28T03:50:53;1014.5;;;14.7;90.2
61880;BME280;47817;52.798;27.544;2023-07-28T03:55:11;1014.6;;;14.9;89.8
61880;BME280;47817;52.798;27.544;2023-07-28T04:00:27;1014.7;;;15.2;89.2
61880;BME280;47817;52.798;27.544;2023-07-28T04:05:53;1014.7;;;15.3;88.7
61880;BME280;47817;52.798;27.544;2023-07-28T04:10:39;1014.7;;;15.4;87.9
61880;BME280;47817;52.798;27.544;2023-07-28T04:15:53;1014.7;;;15.5;87.3
61880;BME280;47817;52.798;27.544;2023-07-28T04:20:23;1014.8;;;15.6;86.9
61880;BME280;47817;52.798;27.544;2023-07-28T04:25:11;1014.9;;;15.7;86.3
61880;BME280;47817;52.798;27.544;2023-07-28T04:30:15;1014.9;;;15.8;85.9
61880;BME280;47817;52.798;27.544;2023-07-28T04:35:23;1015;;;16;85.2
61880;BME280;47817;52.798;27.544;2023-07-28T04:40:11;1015;;;16.1;84.7
61880;BME280;47817;52.798;27.544;2023-07-28T04:45:39;1014.9;;;16.1;84.1
61880;BME280;47817;52.798;27.544;2023-07-28T04:50:53;1014.9;;;16.1;83.6
61880;BME280;47817;52.798;27.544;2023-07-28T04:55:11;1014.9;;;16.3;83.4
61880;BME280;47817;52.798;27.544;2023-07-28T05:00:15;1015;;;16.5;82.6
61880;BME280;47817;52.798;27.544;2023-07-28T05:05:37;1015;;;16.7;82
61880;BME280;47817;52.798;27.544;2023-07-28T05:10:51;1015;;;16.9;81.1
61880;BME280;47817;52.798;27.544;2023-07-28T05:15:53;1015;;;17;80
61880;BME280;47817;52.798;27.544;2023-07-28T05:20:11;1014.9;;;17.1;79.1
61880;BME280;47817;52.798;27.544;2023-07-28T05:25:51;1014.9;;;17.2;79.5
61880;BME280;47817;52.798;27.544;2023-07-28T05:30:11;1014.9;;;17.5;79.1
61880;BME280;47817;52.798;27.544;2023-07-28T05:35:27;1014.9;;;17.7;78.2
61880;BME280;47817;52.798;27.544;2023-07-28T05:40:17;1015;;;17.8;76.9
61880;BME280;47817;52.798;27.544;2023-07-28T05:45:45;1015;;;17.9;76.2
61880;BME280;47817;52.798;27.544;2023-07-28T05:50:43;1015;;;18.1;76.2
61880;BME280;47817;52.798;27.544;2023-07-28T05:55:41;1015;;;18.3;75.3
61880;BME280;47817;52.798;27.544;2023-07-28T06:00:55;1015;;;18.5;74.4
61880;BME280;47817;52.798;27.544;2023-07-28T06:05:29;1014.9;;;18.6;73.5
61880;BME280;47817;52.798;27.544;2023-07-28T06:10:55;1015;;;18.7;72.5
61880;BME280;47817;52.798;27.544;2023-07-28T06:15:45;1014.9;;;18.9;71.5
61880;BME280;47817;52.798;27.544;2023-07-28T06:20:55;1014.9;;;19.1;71
61880;BME280;47817;52.798;27.544;2023-07-28T06:25:45;1014.9;;;19.2;69.9
61880;BME280;47817;52.798;27.544;2023-07-28T06:30:39;1014.8;;;19.4;69.7
61880;BME280;47817;52.798;27.544;2023-07-28T06:35:11;1014.9;;;19.4;67.3
61880;BME280;47817;52.798;27.544;2023-07-28T06:40:11;1014.8;;;19.6;67
61880;BME280;47817;52.798;27.544;2023-07-28T06:45:53;1014.8;;;19.7;66
61880;BME280;47817;52.798;27.544;2023-07-28T06:50:39;1014.8;;;19.9;64.8
61880;BME280;47817;52.798;27.544;2023-07-28T06:55:29;1014.8;;;20;64.6
61880;BME280;47817;52.798;27.544;2023-07-28T07:00:55;1014.8;;;20.2;64.4
61880;BME280;47817;52.798;27.544;2023-07-28T07:05:55;1014.8;;;20.3;63.7
61880;BME280;47817;52.798;27.544;2023-07-28T07:10:15;1014.8;;;20.5;63.2
61880;BME280;47817;52.798;27.544;2023-07-28T07:15:15;1014.8;;;20.6;62.8
61880;BME280;47817;52.798;27.544;2023-07-28T07:20:33;1014.8;;;20.8;61.5
61880;BME280;47817;52.798;27.544;2023-07-28T07:25:45;1014.8;;;20.9;61.3
61880;BME280;47817;52.798;27.544;2023-07-28T07:30:31;1014.8;;;21;59.6
61880;BME280;47817;52.798;27.544;2023-07-28T07:35:39;1014.8;;;21.1;59.3
61880;BME280;47817;52.798;27.544;2023-07-28T07:40:55;1014.8;;;21.1;57.9
61880;BME280;47817;52.798;27.544;2023-07-28T07:45:15;1014.8;;;21.3;56.8
61880;BME280;47817;52.798;27.544;2023-07-28T07:50:15;1014.8;;;21.4;55.8
61880;BME280;47817;52.798;27.544;2023-07-28T07:55:55;1014.8;;;21.6;55
61880;BME280;47817;52.798;27.544;2023-07-28T08:00:31;1014.7;;;21.6;53.9
61880;BME280;47817;52.798;27.544;2023-07-28T08:05:25;1014.7;;;21.8;53.8
61880;BME280;47817;52.798;27.544;2023-07-28T08:10:23;1014.7;;;22.1;53.6
61880;BME280;47817;52.798;27.544;2023-07-28T08:15:11;1014.7;;;22.3;52.8
61880;BME280;47817;52.798;27.544;2023-07-28T08:20:29;1014.7;;;22.5;52.7
61880;BME280;47817;52.798;27.544;2023-07-28T08:25:51;1014.6;;;22.5;50.2
61880;BME280;47817;52.798;27.544;2023-07-28T08:30:25;1014.6;;;22.5;49.2
61880;BME280;47817;52.798;27.544;2023-07-28T08:35:39;1014.6;;;22.6;48.5
61880;BME280;47817;52.798;27.544;2023-07-28T08:40:39;1014.5;;;22.8;48.2
61880;BME280;47817;52.798;27.544;2023-07-28T08:45:23;1014.5;;;23.2;48.1
61880;BME280;47817;52.798;27.544;2023-07-28T08:50:23;1014.6;;;23.3;47.2
61880;BME280;47817;52.798;27.544;2023-07-28T08:55:55;1014.6;;;23.6;46.3
61880;BME280;47817;52.798;27.544;2023-07-28T09:00:55;1014.5;;;23.7;45.8
61880;BME280;47817;52.798;27.544;2023-07-28T09:05:29;1014.5;;;24.2;45.7
61880;BME280;47817;52.798;27.544;2023-07-28T09:10:55;1014.5;;;24.4;44.3
61880;BME280;47817;52.798;27.544;2023-07-28T09:15:53;1014.5;;;24.7;43.3
61880;BME280;47817;52.798;27.544;2023-07-28T09:20:15;1014.5;;;24.9;42.5
61880;BME280;47817;52.798;27.544;2023-07-28T09:25:19;1014.5;;;24.7;41.1
61880;BME280;47817;52.798;27.544;2023-07-28T09:30:43;1014.4;;;25;41.5
61880;BME280;47817;52.798;27.544;2023-07-28T09:35:55;1014.4;;;24.7;41
61880;BME280;47817;52.798;27.544;2023-07-28T09:40:53;1014.4;;;25.2;41.3
61880;BME280;47817;52.798;27.544;2023-07-28T09:45:19;1014.5;;;25.4;41.2
61880;BME280;47817;52.798;27.544;2023-07-28T09:50:53;1014.4;;;25.7;41.2
61880;BME280;47817;52.798;27.544;2023-07-28T09:55:11;1014.4;;;26;39.7
61880;BME280;47817;52.798;27.544;2023-07-28T10:00:13;1014.4;;;25.7;39.8
61880;BME280;47817;52.798;27.544;2023-07-28T10:05:37;1014.4;;;25.3;40.7
61880;BME280;47817;52.798;27.544;2023-07-28T10:10:35;1014.3;;;25;40.6
61880;BME280;47817;52.798;27.544;2023-07-28T10:15:45;1014.3;;;25.2;40.7
61880;BME280;47817;52.798;27.544;2023-07-28T10:20:27;1014.4;;;25.5;40.6
61880;BME280;47817;52.798;27.544;2023-07-28T10:25:56;1014.3;;;25.5;40.2
61880;BME280;47817;52.798;27.544;2023-07-28T10:30:12;1014.4;;;25.4;39.5
61880;BME280;47817;52.798;27.544;2023-07-28T10:35:53;1014.3;;;25;39.8
61880;BME280;47817;52.798;27.544;2023-07-28T10:40:30;1014.3;;;24.9;40.5
61880;BME280;47817;52.798;27.544;2023-07-28T10:45:55;1014.3;;;25.2;40
61880;BME280;47817;52.798;27.544;2023-07-28T10:50:45;1014.3;;;25.4;39.4
61880;BME280;47817;52.798;27.544;2023-07-28T10:55:39;1014.3;;;25.2;39.4
61880;BME280;47817;52.798;27.544;2023-07-28T11:00:12;1014.3;;;24.9;39.7
61880;BME280;47817;52.798;27.544;2023-07-28T11:05:12;1014.3;;;24.9;39.5
61880;BME280;47817;52.798;27.544;2023-07-28T11:10:55;1014.3;;;25.2;39
61880;BME280;47817;52.798;27.544;2023-07-28T11:15:29;1014.3;;;25.7;38.6
61880;BME280;47817;52.798;27.544;2023-07-28T11:20:14;1014.3;;;25.7;38.6
61880;BME280;47817;52.798;27.544;2023-07-28T11:25:55;1014.2;;;26.2;38.2
61880;BME280;47817;52.798;27.544;2023-07-28T11:30:55;1014.2;;;26.6;37.1
61880;BME280;47817;52.798;27.544;2023-07-28T11:35:16;1014.2;;;27.2;37
61880;BME280;47817;52.798;27.544;2023-07-28T11:40:23;1014.2;;;27.9;35.6
61880;BME280;47817;52.798;27.544;2023-07-28T11:45:45;1014.1;;;28.4;33.3
61880;BME280;47817;52.798;27.544;2023-07-28T11:50:28;1014.1;;;28.7;33.9
61880;BME280;47817;52.798;27.544;2023-07-28T11:55:29;1014.1;;;28.9;33.4
61880;BME280;47817;52.798;27.544;2023-07-28T12:00:24;1014.1;;;28.8;33
61880;BME280;47817;52.798;27.544;2023-07-28T12:06:01;1014.1;;;28.7;32.9
61880;BME280;47817;52.798;27.544;2023-07-28T12:10:50;1014.1;;;28.7;32.9
61880;BME280;47817;52.798;27.544;2023-07-28T12:15:26;1014;;;29.1;32.9
61880;BME280;47817;52.798;27.544;2023-07-28T12:20:55;1014;;;29.8;31.6
61880;BME280;47817;52.798;27.544;2023-07-28T12:25:36;1013.9;;;30.5;30.8
61880;BME280;47817;52.798;27.544;2023-07-28T12:30:55;1013.8;;;30.9;30.4
61880;BME280;47817;52.798;27.544;2023-07-28T12:35:24;1013.8;;;31.3;30.1
61880;BME280;47817;52.798;27.544;2023-07-28T12:40:11;1013.8;;;31.6;29.5
61880;BME280;47817;52.798;27.544;2023-07-28T12:45:11;1013.8;;;30.9;29.4
61880;BME280;47817;52.798;27.544;2023-07-28T12:50:29;1013.7;;;31.6;29.4
61880;BME280;47817;52.798;27.544;2023-07-28T12:55:11;1013.7;;;33.1;27.6
61880;BME280;47817;52.798;27.544;2023-07-28T13:00:39;1013.7;;;33.6;26.6
61880;BME280;47817;52.798;27.544;2023-07-28T13:05:39;1013.7;;;34.5;25.7
61880;BME280;47817;52.798;27.544;2023-07-28T13:10:23;1013.7;;;35.3;25.7
61880;BME280;47817;52.798;27.544;2023-07-28T13:15:11;1013.7;;;34.4;26
61880;BME280;47817;52.798;27.544;2023-07-28T13:20:55;1013.6;;;35.9;24.6
61880;BME280;47817;52.798;27.544;2023-07-28T13:25:55;1013.5;;;38.7;22.4
61880;BME280;47817;52.798;27.544;2023-07-28T13:30:41;1013.5;;;40.9;20.4
61880;BME280;47817;52.798;27.544;2023-07-28T13:35:39;1013.5;;;41.2;19
61880;BME280;47817;52.798;27.544;2023-07-28T13:40:55;1013.5;;;38;20.8
61880;BME280;47817;52.798;27.544;2023-07-28T13:45:45;1013.4;;;39.6;20
61880;BME280;47817;52.798;27.544;2023-07-28T13:50:19;1013.4;;;42.8;17.8
61880;BME280;47817;52.798;27.544;2023-07-28T13:55:39;1013.5;;;40.7;18.3
61880;BME280;47817;52.798;27.544;2023-07-28T14:00:55;1013.6;;;37.9;20
61880;BME280;47817;52.798;27.544;2023-07-28T14:05:55;1013.5;;;41.3;18.1
61880;BME280;47817;52.798;27.544;2023-07-28T14:10:11;1013.5;;;41.8;17.2
61880;BME280;47817;52.798;27.544;2023-07-28T14:15:55;1013.5;;;40.5;18.6
61880;BME280;47817;52.798;27.544;2023-07-28T14:20:27;1013.5;;;39.4;18.8
61880;BME280;47817;52.798;27.544;2023-07-28T14:25:45;1013.4;;;40.1;19.3
61880;BME280;47817;52.798;27.544;2023-07-28T14:30:39;1013.2;;;41.1;18.7
61880;BME280;47817;52.798;27.544;2023-07-28T14:35:39;1013.4;;;39.5;19
61880;BME280;47817;52.798;27.544;2023-07-28T14:40:45;1013.4;;;40.8;17.9
61880;BME280;47817;52.798;27.544;2023-07-28T14:45:39;1013.2;;;42.6;17.3
61880;BME280;47817;52.798;27.544;2023-07-28T14:50:55;1013.2;;;43.3;16.6
61880;BME280;47817;52.798;27.544;2023-07-28T14:55:11;1013.1;;;43.7;15.9
61880;BME280;47817;52.798;27.544;2023-07-28T15:00:53;1013.2;;;41.6;16.8
61880;BME280;47817;52.798;27.544;2023-07-28T15:05:25;1013.2;;;39.2;18.3
61880;BME280;47817;52.798;27.544;2023-07-28T15:10:56;1013.2;;;38.1;19.4
61880;BME280;47817;52.798;27.544;2023-07-28T15:15:45;1013.3;;;36.5;20.6
61880;BME280;47817;52.798;27.544;2023-07-28T15:20:40;1013.3;;;34.9;21.8
61880;BME280;47817;52.798;27.544;2023-07-28T15:25:25;1013.3;;;33.3;23.1
61880;BME280;47817;52.798;27.544;2023-07-28T15:30:25;1013.4;;;31.6;24.9
61880;BME280;47817;52.798;27.544;2023-07-28T15:35:55;1013.5;;;30.3;26.3
61880;BME280;47817;52.798;27.544;2023-07-28T15:40:29;1013.7;;;29;28.1
61880;BME280;47817;52.798;27.544;2023-07-28T15:45:30;1013.8;;;27.2;31.4
61880;BME280;47817;52.798;27.544;2023-07-28T15:50:23;1013.9;;;26;33.5
61880;BME280;47817;52.798;27.544;2023-07-28T15:55:55;1013.9;;;25.3;34.9
61880;BME280;47817;52.798;27.544;2023-07-28T16:00:11;1014;;;24.7;36.7
61880;BME280;47817;52.798;27.544;2023-07-28T16:05:29;1014.1;;;24.3;37.6
61880;BME280;47817;52.798;27.544;2023-07-28T16:10:55;1014.1;;;24.1;38.8
61880;BME280;47817;52.798;27.544;2023-07-28T16:15:45;1014.1;;;23.8;40.9
61880;BME280;47817;52.798;27.544;2023-07-28T16:20:11;1014.1;;;23.5;41.9
61880;BME280;47817;52.798;27.544;2023-07-28T16:25:19;1014.1;;;23.3;43.3
61880;BME280;47817;52.798;27.544;2023-07-28T16:30:11;1014;;;23.2;43.9
61880;BME280;47817;52.798;27.544;2023-07-28T16:35:15;1014.1;;;23.1;43.7
61880;BME280;47817;52.798;27.544;2023-07-28T16:40:21;1014.1;;;23;43.8
61880;BME280;47817;52.798;27.544;2023-07-28T16:45:55;1014.1;;;23;44.4
61880;BME280;47817;52.798;27.544;2023-07-28T16:50:13;1014.1;;;23;44.7
61880;BME280;47817;52.798;27.544;2023-07-28T16:55:55;1014;;;22.9;45.1
61880;BME280;47817;52.798;27.544;2023-07-28T17:00:19;1014;;;22.9;45.7
61880;BME280;47817;52.798;27.544;2023-07-28T17:05:11;1014;;;22.9;46
61880;BME280;47817;52.798;27.544;2023-07-28T17:10:11;1013.9;;;23.1;45.7
61880;BME280;47817;52.798;27.544;2023-07-28T17:15:21;1014;;;23.2;45.6
61880;BME280;47817;52.798;27.544;2023-07-28T17:20:41;1013.9;;;23.2;46.2
61880;BME280;47817;52.798;27.544;2023-07-28T17:25:39;1013.9;;;23.2;46.6
61880;BME280;47817;52.798;27.544;2023-07-28T17:30:39;1013.9;;;23.3;46.4
61880;BME280;47817;52.798;27.544;2023-07-28T17:35:15;1013.9;;;23.5;46.2
61880;BME280;47817;52.798;27.544;2023-07-28T17:40:23;1013.8;;;23.6;46.1
61880;BME280;47817;52.798;27.544;2023-07-28T17:45:55;1013.8;;;23.6;46
61880;BME280;47817;52.798;27.544;2023-07-28T17:50:55;1013.9;;;23.6;45.9
61880;BME280;47817;52.798;27.544;2023-07-28T17:55:29;1013.9;;;23.5;46.4
61880;BME280;47817;52.798;27.544;2023-07-28T18:00:39;1013.9;;;23.4;46.7
61880;BME280;47817;52.798;27.544;2023-07-28T18:05:55;1013.9;;;23.3;47
61880;BME280;47817;52.798;27.544;2023-07-28T18:10:29;1013.9;;;23.2;47.5
61880;BME280;47817;52.798;27.544;2023-07-28T18:15:15;1013.9;;;23.1;47.7
61880;BME280;47817;52.798;27.544;2023-07-28T18:20:39;1013.9;;;23.1;46.8
61880;BME280;47817;52.798;27.544;2023-07-28T18:25:55;1013.8;;;23.1;46.9
61880;BME280;47817;52.798;27.544;2023-07-28T18:30:55;1013.7;;;23;47
61880;BME280;47817;52.798;27.544;2023-07-28T18:35:19;1013.7;;;22.9;46.7
61880;BME280;47817;52.798;27.544;2023-07-28T18:40:55;1013.7;;;22.9;45.9
61880;BME280;47817;52.798;27.544;2023-07-28T18:45:11;1013.6;;;22.9;45.7
61880;BME280;47817;52.798;27.544;2023-07-28T18:50:29;1013.6;;;22.9;45.7
61880;BME280;47817;52.798;27.544;2023-07-28T18:55:40;1013.5;;;22.9;45.8
61880;BME280;47817;52.798;27.544;2023-07-28T19:00:39;1013.5;;;22.9;45.9
61880;BME280;47817;52.798;27.544;2023-07-28T19:05:45;1013.5;;;23;45.8
61880;BME280;47817;52.798;27.544;2023-07-28T19:10:39;1013.5;;;23;45.8
61880;BME280;47817;52.798;27.544;2023-07-28T19:15:55;1013.5;;;23;46.2
61880;BME280;47817;52.798;27.544;2023-07-28T19:20:25;1013.5;;;22.9;47.1
61880;BME280;47817;52.798;27.544;2023-07-28T19:25:55;1013.5;;;22.8;48.1
61880;BME280;47817;52.798;27.544;2023-07-28T19:30:13;1013.5;;;22.7;48.6
61880;BME280;47817;52.798;27.544;2023-07-28T19:35:29;1013.6;;;22.6;49.6
61880;BME280;47817;52.798;27.544;2023-07-28T19:40:55;1013.6;;;22.5;50.6
61880;BME280;47817;52.798;27.544;2023-07-28T19:45:55;1013.6;;;22.4;51.3
61880;BME280;47817;52.798;27.544;2023-07-28T19:50:11;1013.5;;;22.3;52.3
61880;BME280;47817;52.798;27.544;2023-07-28T19:55:11;1013.6;;;22.2;53.1
61880;BME280;47817;52.798;27.544;2023-07-28T20:00:45;1013.6;;;22.1;53.7
61880;BME280;47817;52.798;27.544;2023-07-28T20:05:45;1013.5;;;22.1;54.3
61880;BME280;47817;52.798;27.544;2023-07-28T20:10:29;1013.5;;;22.1;54.6
61880;BME280;47817;52.798;27.544;2023-07-28T20:15:19;1013.4;;;22.1;54.1
61880;BME280;47817;52.798;27.544;2023-07-28T20:20:55;1013.4;;;22.1;53.3
61880;BME280;47817;52.798;27.544;2023-07-28T20:25:29;1013.4;;;22.1;53.2
61880;BME280;47817;52.798;27.544;2023-07-28T20:30:29;1013.5;;;22;53.1
61880;BME280;47817;52.798;27.544;2023-07-28T20:35:53;1013.5;;;22;53.3
61880;BME280;47817;52.798;27.544;2023-07-28T20:40:31;1013.5;;;22;52.9
61880;BME280;47817;52.798;27.544;2023-07-28T20:45:25;1013.4;;;22;52.6
61880;BME280;47817;52.798;27.544;2023-07-28T20:50:23;1013.5;;;22.1;52.6
61880;BME280;47817;52.798;27.544;2023-07-28T20:55:23;1013.5;;;22.1;52.5
61880;BME280;47817;52.798;27.544;2023-07-28T21:00:15;1013.4;;;22;52.4
61880;BME280;47817;52.798;27.544;2023-07-28T21:05:29;1013.4;;;22;52.4
61880;BME280;47817;52.798;27.544;2023-07-28T21:10:53;1013.4;;;21.9;52.8
61880;BME280;47817;52.798;27.544;2023-07-28T21:15:12;1013.4;;;21.7;53.5
61880;BME280;47817;52.798;27.544;2023-07-28T21:20:55;1013.4;;;21.5;54.3
61880;BME280;47817;52.798;27.544;2023-07-28T21:25:16;1013.5;;;21.4;54.6
61880;BME280;47817;52.798;27.544;2023-07-28T21:30:19;1013.5;;;21.4;54.8
61880;BME280;47817;52.798;27.544;2023-07-28T21:35:11;1013.5;;;21.3;55.2
61880;BME280;47817;52.798;27.544;2023-07-28T21:40:29;1013.5;;;21.2;56.2
61880;BME280;47817;52.798;27.544;2023-07-28T21:45:29;1013.5;;;21.2;56.8
61880;BME280;47817;52.798;27.544;2023-07-28T21:50:37;1013.5;;;21.2;57.3
61880;BME280;47817;52.798;27.544;2023-07-28T21:55:15;1013.5;;;21.2;57.7
61880;BME280;47817;52.798;27.544;2023-07-28T22:00:12;1013.4;;;21.2;57.9
61880;BME280;47817;52.798;27.544;2023-07-28T22:05:27;1013.4;;;21.2;57.7
61880;BME280;47817;52.798;27.544;2023-07-28T22:10:53;1013.3;;;21.2;58
61880;BME280;47817;52.798;27.544;2023-07-28T22:15:53;1013.3;;;21.1;58.4
61880;BME280;47817;52.798;27.544;2023-07-28T22:20:15;1013.3;;;21;58.8
61880;BME280;47817;52.798;27.544;2023-07-28T22:25:32;1013.2;;;21;59
61880;BME280;47817;52.798;27.544;2023-07-28T22:30:40;1013.2;;;20.8;60.8
61880;BME280;47817;52.798;27.544;2023-07-28T22:35:11;1013.1;;;20.7;61.6
61880;BME280;47817;52.798;27.544;2023-07-28T22:40:23;1013.1;;;20.5;62.2
61880;BME280;47817;52.798;27.544;2023-07-28T22:45:39;1013.1;;;20.4;62.7
61880;BME280;47817;52.798;27.544;2023-07-28T22:50:55;1013.1;;;20.3;63.6
61880;BME280;47817;52.798;27.544;2023-07-28T22:55:55;1013.1;;;20.2;64.5
61880;BME280;47817;52.798;27.544;2023-07-28T23:00:23;1013.1;;;20.1;65.6
61880;BME280;47817;52.798;27.544;2023-07-28T23:05:55;1013.2;;;20.1;65.6
61880;BME280;47817;52.798;27.544;2023-07-28T23:10:25;1013.2;;;20.1;66.4
61880;BME280;47817;52.798;27.544;2023-07-28T23:15:55;1013.3;;;20;67.6
61880;BME280;47817;52.798;27.544;2023-07-28T23:20:29;1013.2;;;19.9;68.6
61880;BME280;47817;52.798;27.544;2023-07-28T23:25:55;1013.3;;;19.8;69.8
61880;BME280;47817;52.798;27.544;2023-07-28T23:30:45;1013.3;;;19.7;70
61880;BME280;47817;52.798;27.544;2023-07-28T23:35:39;1013.4;;;19.6;71.2
61880;BME280;47817;52.798;27.544;2023-07-28T23:40:11;1013.3;;;19.5;72
61880;BME280;47817;52.798;27.544;2023-07-28T23:45:11;1013.2;;;19.4;72.8
61880;BME280;47817;52.798;27.544;2023-07-28T23:50:56;1013.1;;;19.3;73.8
61880;BME280;47817;52.798;27.544;2023-07-28T23:55:39;1013;;;19.3;73.7
